Aviation Digital Data Service (ADDS)

Output produced by METARs form (2314 UTC 23 October 2019)
found at http://www.aviationweather.gov/metar/data/
 
Forecast for: ZGNN (NANNING/WUXU , CN)
Text: TAF ZGNN 231909Z 2400/2424 06003MPS 6000 FEW004 BKN030 TX23/2407Z TN18/2422Z
Forecast period: 0000 to 0200 UTC 24 October 2019
Forecast type: FROM: standard forecast or significant change
Winds: from the ENE (60 degrees) at 7 MPH (6 knots; 3.1 m/s)
Visibility: 4 miles (6 km)
Ceiling: 3000 feet AGL
Clouds: few clouds at 400 feet AGL
broken clouds at 3000 feet AGL
Weather: no significant weather forecast for this period
Text: BECMG 2402/2403 BKN013 BKN030
Forecast period: 0200 UTC 24 October 2019 to 0000 UTC 25 October 2019
Forecast type: BECOMING: Conditions expected to become as follows by 0300 UTC 24 October 2019
Winds: from the ENE (60 degrees) at 7 MPH (6 knots; 3.1 m/s)
Visibility: 4 miles (6 km)
Ceiling: 1300 feet AGL
Clouds: broken clouds at 1300 feet AGL
broken clouds at 3000 feet AGL
Weather: no significant weather forecast for this period